SANU/UAQ METAR and TAF weather

Enter ICAO airport designator
Station Type Date Time Source
SANU METAR 2019/04/23 11:40 UTC NOAA

SANU 231140Z 00000KT 1500 BR NSC 11/10 Q1020


Station Type Date Time Source
SANU Decoded METAR 2019/04/23 11:40 UTC NOAA

San Juan Aerodrome, Argentina (SANU) 31-34S 068-52W 598M
Apr 23, 2019 - 07:40 AM EDT / 2019.04.23 1140 UTC
Wind: Calm:0
Visibility: less than 1 mile:0
Weather: mist
Temperature: 51 F (11 C)
Dew Point: 50 F (10 C)
Relative Humidity: 93%
Pressure (altimeter): 30.12 in. Hg (1020 hPa)
ob: SANU 231140Z 00000KT 1500 BR NSC 11/10 Q1020
cycle: 11

Station Type Date Time Source
SANU TAF 2019/04/18 06:36 UTC NOAA

TAF SANU 180500Z 1806/1906 20005KT CAVOK TN11/1810Z TX29/1820Z TAF

Example: see airport list